createdAt,value
2022-12-22T00:02:43.764Z,138.67
2022-12-22T00:05:33.989Z,122.87
2022-12-22T00:08:20.408Z,133.70
2022-12-22T00:11:07.069Z,117.87
2022-12-22T00:13:53.347Z,115.47
2022-12-22T00:16:39.422Z,118.37
2022-12-22T00:19:32.310Z,120.07
2022-12-22T00:22:25.964Z,110.13
2022-12-22T00:25:11.373Z,107.10
2022-12-22T00:27:56.907Z,105.90
2022-12-22T00:30:43.075Z,100.27
2022-12-22T00:33:31.339Z,108.47
2022-12-22T00:36:16.925Z,112.73
2022-12-22T00:39:02.050Z,114.30
2022-12-22T00:41:47.538Z,108.60
2022-12-22T00:44:32.973Z,107.13
2022-12-22T00:47:18.819Z,104.00
2022-12-22T00:50:07.418Z,116.90
2022-12-22T00:52:53.978Z,101.83
2022-12-22T00:55:48.153Z,116.53
2022-12-22T00:58:37.509Z,118.70
2022-12-22T01:01:23.122Z,123.00
2022-12-22T01:04:09.084Z,113.80
2022-12-22T01:06:55.100Z,115.10
2022-12-22T01:09:41.945Z,118.33
2022-12-22T01:12:40.897Z,118.83
2022-12-22T01:15:37.284Z,104.77
2022-12-22T01:18:23.772Z,115.30
2022-12-22T01:21:10.360Z,109.07
2022-12-22T01:23:57.318Z,100.60
2022-12-22T01:26:42.878Z,101.07
2022-12-22T01:29:28.379Z,93.93
2022-12-22T01:32:14.126Z,95.27
2022-12-22T01:35:00.710Z,84.77
2022-12-22T01:37:46.653Z,89.40
2022-12-22T01:40:38.161Z,81.90
2022-12-22T01:43:46.009Z,84.83
2022-12-22T01:46:51.469Z,83.70
2022-12-22T01:49:47.715Z,85.10
2022-12-22T01:52:36.243Z,73.63
2022-12-22T01:55:28.948Z,81.80
2022-12-22T01:58:14.783Z,76.13
2022-12-22T02:01:01.569Z,77.80
2022-12-22T02:03:47.166Z,74.57
2022-12-22T02:06:59.533Z,72.13
2022-12-22T02:10:02.918Z,70.50
2022-12-22T02:13:20.908Z,68.40
2022-12-22T02:16:28.058Z,75.10
2022-12-22T02:19:26.345Z,71.83
2022-12-22T02:22:17.611Z,74.43
2022-12-22T02:25:13.453Z,74.37
2022-12-22T02:28:00.673Z,84.40
2022-12-22T02:30:46.795Z,71.37
2022-12-22T02:33:32.129Z,78.43
2022-12-22T02:36:37.994Z,70.93
2022-12-22T02:39:36.102Z,81.20
2022-12-22T02:42:35.229Z,73.23
2022-12-22T02:45:34.470Z,72.43
2022-12-22T02:48:25.232Z,74.47
2022-12-22T02:51:48.427Z,74.77
2022-12-22T02:54:35.877Z,74.50
2022-12-22T02:57:27.613Z,80.57
2022-12-22T03:00:13.376Z,79.10
2022-12-22T03:02:59.171Z,74.87
2022-12-22T03:05:44.955Z,73.47
2022-12-22T03:08:30.460Z,74.30
2022-12-22T03:11:15.852Z,73.57
2022-12-22T03:14:01.422Z,72.90
2022-12-22T03:16:47.052Z,83.33
2022-12-22T03:19:32.629Z,73.67
2022-12-22T03:22:18.319Z,65.70
2022-12-22T03:25:03.370Z,65.67
2022-12-22T03:27:30.758Z,63.47
2022-12-22T03:29:57.529Z,59.53
2022-12-22T03:32:24.656Z,63.97
2022-12-22T03:34:51.405Z,62.33
2022-12-22T03:37:18.541Z,65.93
2022-12-22T03:39:45.249Z,59.43
2022-12-22T03:42:31.072Z,61.47
2022-12-22T03:45:16.190Z,63.37
2022-12-22T03:47:43.203Z,60.17
2022-12-22T03:50:11.551Z,61.47
2022-12-22T03:52:38.565Z,60.70
2022-12-22T03:55:05.864Z,62.53
2022-12-22T03:57:32.885Z,59.50
2022-12-22T03:59:59.727Z,61.47
2022-12-22T04:02:26.867Z,57.67
2022-12-22T04:04:53.717Z,65.07
2022-12-22T04:07:20.300Z,64.83
2022-12-22T04:10:06.095Z,56.47
2022-12-22T04:12:51.488Z,58.57
2022-12-22T04:15:18.479Z,62.20
2022-12-22T04:17:45.237Z,57.77
2022-12-22T04:20:12.673Z,61.20
2022-12-22T04:22:39.502Z,59.20
2022-12-22T04:25:07.162Z,57.13
2022-12-22T04:27:34.059Z,59.83
2022-12-22T04:30:01.053Z,65.07
2022-12-22T04:32:27.847Z,53.87
2022-12-22T04:34:54.911Z,56.07
2022-12-22T04:37:21.689Z,56.80
2022-12-22T04:39:48.668Z,52.63
2022-12-22T04:42:15.547Z,54.30
2022-12-22T04:44:42.574Z,62.33
2022-12-22T04:47:09.386Z,55.43
2022-12-22T04:49:36.409Z,53.33
2022-12-22T04:52:03.300Z,62.53
2022-12-22T04:54:30.376Z,54.07
2022-12-22T04:56:57.149Z,65.40
2022-12-22T04:59:24.293Z,58.33
2022-12-22T05:01:51.617Z,55.80
2022-12-22T05:04:23.484Z,57.03
2022-12-22T05:06:50.756Z,61.43
2022-12-22T05:09:17.783Z,56.20
2022-12-22T05:11:44.621Z,53.07
2022-12-22T05:14:11.665Z,60.90
2022-12-22T05:16:38.428Z,58.10
2022-12-22T05:19:05.488Z,62.03
2022-12-22T05:21:32.237Z,66.40
2022-12-22T05:23:59.369Z,61.13
2022-12-22T05:26:26.159Z,64.20
2022-12-22T05:28:53.216Z,65.10
2022-12-22T05:31:22.813Z,63.97
2022-12-22T05:33:50.681Z,63.70
2022-12-22T05:36:17.944Z,69.07
2022-12-22T05:38:45.138Z,67.50
2022-12-22T05:41:11.924Z,71.50
2022-12-22T05:43:39.378Z,69.37
2022-12-22T05:46:09.373Z,65.00
2022-12-22T05:48:39.041Z,67.60
2022-12-22T05:51:09.036Z,65.30
2022-12-22T05:53:37.320Z,61.33
2022-12-22T05:56:04.720Z,66.50
2022-12-22T05:58:32.849Z,77.73
2022-12-22T06:01:00.564Z,78.53
2022-12-22T06:03:28.822Z,78.73
2022-12-22T06:05:56.518Z,76.80
2022-12-22T06:08:24.441Z,83.63
2022-12-22T06:10:53.336Z,90.60
2022-12-22T06:13:20.379Z,80.57
2022-12-22T06:15:48.415Z,77.90
2022-12-22T06:18:15.413Z,83.67
2022-12-22T06:20:42.104Z,81.67
2022-12-22T06:23:09.246Z,78.97
2022-12-22T06:25:36.187Z,79.90
2022-12-22T06:28:03.325Z,84.40
2022-12-22T06:30:33.630Z,78.13
2022-12-22T06:33:01.655Z,78.73
2022-12-22T06:35:28.663Z,80.87
2022-12-22T06:37:56.001Z,90.00
2022-12-22T06:40:23.016Z,84.67
2022-12-22T06:43:09.576Z,73.37
2022-12-22T06:45:39.119Z,76.60
2022-12-22T06:48:07.448Z,71.50
2022-12-22T06:50:35.111Z,79.40
2022-12-22T06:53:03.113Z,73.23
2022-12-22T06:55:29.894Z,68.13
2022-12-22T06:57:56.974Z,66.73
2022-12-22T07:00:23.879Z,69.90
2022-12-22T07:02:51.053Z,61.50
2022-12-22T07:05:18.012Z,63.83
2022-12-22T07:07:45.260Z,63.07
2022-12-22T07:10:12.707Z,64.60
2022-12-22T07:12:39.831Z,56.57
2022-12-22T07:15:07.231Z,59.07
2022-12-22T07:17:34.559Z,59.50
2022-12-22T07:20:01.305Z,64.87
2022-12-22T07:22:30.731Z,58.77
2022-12-22T07:24:58.392Z,53.93
2022-12-22T07:27:25.636Z,55.17
2022-12-22T07:29:52.421Z,64.33
2022-12-22T07:32:19.385Z,58.80
2022-12-22T07:34:46.301Z,60.30
2022-12-22T07:37:13.802Z,57.67
2022-12-22T07:39:40.716Z,56.73
2022-12-22T07:42:26.417Z,52.87
2022-12-22T07:44:53.237Z,51.27
2022-12-22T07:47:20.414Z,68.93
2022-12-22T07:50:05.884Z,52.20
2022-12-22T07:52:32.999Z,54.90
2022-12-22T07:54:59.948Z,52.87
2022-12-22T07:57:27.094Z,49.30
2022-12-22T07:59:53.977Z,54.77
2022-12-22T08:02:21.077Z,48.27
2022-12-22T08:04:48.047Z,49.23
2022-12-22T08:07:15.232Z,62.60
2022-12-22T08:09:42.003Z,67.13
2022-12-22T08:12:09.099Z,58.70
2022-12-22T08:14:35.815Z,41.90
2022-12-22T08:17:02.887Z,44.03
2022-12-22T08:19:29.632Z,61.73
2022-12-22T08:21:56.752Z,62.60
2022-12-22T08:24:23.530Z,38.90
2022-12-22T08:26:55.343Z,38.87
2022-12-22T08:29:29.123Z,39.73
2022-12-22T08:31:56.551Z,37.63
2022-12-22T08:34:23.593Z,38.13
2022-12-22T08:36:56.220Z,36.40
2022-12-22T08:39:27.068Z,41.33
2022-12-22T08:41:55.147Z,39.77
2022-12-22T08:44:27.134Z,37.80
2022-12-22T08:46:57.042Z,34.47
2022-12-22T08:49:24.880Z,35.83
2022-12-22T08:51:52.759Z,37.17
2022-12-22T08:54:20.009Z,48.50
2022-12-22T08:56:47.528Z,33.77
2022-12-22T08:59:14.384Z,37.90
2022-12-22T09:01:44.528Z,30.03
2022-12-22T09:04:16.105Z,27.17
2022-12-22T09:06:43.478Z,27.07
2022-12-22T09:09:12.637Z,24.50
2022-12-22T09:11:41.024Z,24.97
2022-12-22T09:14:10.252Z,20.53
2022-12-22T09:16:38.000Z,20.63
2022-12-22T09:19:06.805Z,24.17
2022-12-22T09:21:34.818Z,25.50
2022-12-22T09:24:01.783Z,24.93
2022-12-22T09:26:29.180Z,22.53
2022-12-22T09:28:57.645Z,25.67
2022-12-22T09:31:26.008Z,25.23
2022-12-22T09:33:52.881Z,27.50
2022-12-22T09:36:24.711Z,29.10
2022-12-22T09:38:51.887Z,29.23
2022-12-22T09:41:26.041Z,25.60
2022-12-22T09:43:55.160Z,26.13
2022-12-22T09:46:27.014Z,28.43
2022-12-22T09:48:54.128Z,23.43
2022-12-22T09:51:26.655Z,21.00
2022-12-22T09:53:58.890Z,19.60
2022-12-22T09:56:27.989Z,23.10
2022-12-22T09:58:54.868Z,21.73
2022-12-22T10:01:50.855Z,21.40
2022-12-22T10:04:26.319Z,23.70
2022-12-22T10:07:12.639Z,24.13
2022-12-22T10:09:50.371Z,32.27
2022-12-22T10:12:22.758Z,30.37
2022-12-22T10:14:51.919Z,28.63
2022-12-22T10:17:31.472Z,28.60
2022-12-22T10:20:09.427Z,27.77
2022-12-22T10:23:06.918Z,39.27
2022-12-22T10:26:26.764Z,27.23
2022-12-22T10:28:49.030Z,23.30
2022-12-22T10:31:22.139Z,32.33
2022-12-22T10:33:53.865Z,26.77
2022-12-22T10:36:26.741Z,32.47
2022-12-22T10:38:59.441Z,24.90
2022-12-22T10:41:30.947Z,31.20
2022-12-22T10:44:06.791Z,53.90
2022-12-22T10:46:40.390Z,32.23
2022-12-22T10:49:20.432Z,29.80
2022-12-22T10:51:52.255Z,28.53
2022-12-22T10:54:25.624Z,35.43
2022-12-22T10:57:04.934Z,28.27
2022-12-22T10:59:34.013Z,33.73
2022-12-22T11:02:21.270Z,30.50
2022-12-22T11:04:49.532Z,31.70
2022-12-22T11:07:16.547Z,28.77
2022-12-22T11:09:43.808Z,28.83
2022-12-22T11:12:20.812Z,30.23
2022-12-22T11:15:24.267Z,33.00
2022-12-22T11:18:10.429Z,28.67
2022-12-22T11:21:08.716Z,30.33
2022-12-22T11:24:15.492Z,30.10
2022-12-22T11:27:00.150Z,34.53
2022-12-22T11:29:51.595Z,34.70
2022-12-22T11:33:12.597Z,36.87
2022-12-22T11:35:52.469Z,35.73
2022-12-22T11:38:54.523Z,37.67
2022-12-22T11:41:49.593Z,38.37
2022-12-22T11:44:28.534Z,37.80
2022-12-22T11:47:09.819Z,38.07
2022-12-22T11:49:53.771Z,39.03
2022-12-22T11:52:56.465Z,36.60
2022-12-22T11:55:35.632Z,41.13
2022-12-22T11:58:08.248Z,41.87
2022-12-22T12:01:13.722Z,41.77
2022-12-22T12:04:12.497Z,41.13
2022-12-22T12:07:00.861Z,41.63
2022-12-22T12:09:43.272Z,43.40
2022-12-22T12:12:20.785Z,45.50
2022-12-22T12:15:02.728Z,46.13
2022-12-22T12:17:50.319Z,47.00
2022-12-22T12:20:46.254Z,45.60
2022-12-22T12:23:47.067Z,44.57
2022-12-22T12:26:31.909Z,47.30
2022-12-22T12:29:23.618Z,48.57
2022-12-22T12:32:05.672Z,50.73
2022-12-22T12:34:37.605Z,47.93
2022-12-22T12:37:20.274Z,52.90
2022-12-22T12:39:57.401Z,51.27
2022-12-22T12:42:37.778Z,49.40
2022-12-22T12:45:33.912Z,53.13
2022-12-22T12:48:25.969Z,54.07
2022-12-22T12:50:57.874Z,51.67
2022-12-22T12:53:25.837Z,60.00
2022-12-22T12:55:54.406Z,51.70
2022-12-22T12:58:39.587Z,61.07
2022-12-22T13:01:11.798Z,58.17
2022-12-22T13:06:51.841Z,60.73
2022-12-22T13:09:50.413Z,60.90
2022-12-22T13:12:48.994Z,54.73
2022-12-22T13:15:36.879Z,65.40
2022-12-22T13:18:28.691Z,61.33
2022-12-22T13:21:18.871Z,67.23
2022-12-22T13:24:15.009Z,66.00
2022-12-22T13:26:40.659Z,65.47
2022-12-22T13:29:22.823Z,63.07
2022-12-22T13:32:00.505Z,67.83
2022-12-22T13:35:04.915Z,61.07
2022-12-22T13:37:39.102Z,59.23
2022-12-22T13:40:15.469Z,66.10
2022-12-22T13:42:52.851Z,67.33
2022-12-22T13:45:35.300Z,66.83
2022-12-22T13:48:07.940Z,66.23
2022-12-22T13:50:39.272Z,71.17
2022-12-22T13:53:10.099Z,67.97
2022-12-22T13:55:38.621Z,64.17
2022-12-22T13:58:12.942Z,63.73
2022-12-22T14:00:40.172Z,70.37
2022-12-22T14:03:49.523Z,68.27
2022-12-22T14:06:19.394Z,69.07
2022-12-22T14:08:46.361Z,72.87
2022-12-22T14:11:13.453Z,77.33
2022-12-22T14:13:40.430Z,73.57
2022-12-22T14:16:12.790Z,73.50
2022-12-22T14:18:39.926Z,71.83
2022-12-22T14:21:08.756Z,75.23
2022-12-22T14:23:39.954Z,74.30
2022-12-22T14:26:12.615Z,74.97
2022-12-22T14:28:50.224Z,74.67
2022-12-22T14:31:18.115Z,70.53
2022-12-22T14:34:03.346Z,74.47
2022-12-22T14:36:40.601Z,73.80
2022-12-22T14:39:25.715Z,71.07
2022-12-22T14:41:58.317Z,74.37
2022-12-22T14:44:44.962Z,74.17
2022-12-22T14:47:12.272Z,72.63
2022-12-22T14:49:54.298Z,74.43
2022-12-22T14:52:35.813Z,73.10
2022-12-22T14:55:05.771Z,76.87
2022-12-22T14:57:39.632Z,78.07
2022-12-22T15:00:30.281Z,75.23
2022-12-22T15:03:25.134Z,73.20
2022-12-22T15:05:52.664Z,77.37
2022-12-22T15:08:42.470Z,71.70
2022-12-22T15:11:18.435Z,70.30
2022-12-22T15:13:47.576Z,82.57
2022-12-22T15:16:17.892Z,80.37
2022-12-22T15:18:45.338Z,77.93
2022-12-22T15:21:15.088Z,77.03
2022-12-22T15:23:42.486Z,90.93
2022-12-22T15:26:09.361Z,88.77
2022-12-22T15:28:36.925Z,80.00
2022-12-22T15:31:06.846Z,78.50
2022-12-22T15:33:33.930Z,78.47
2022-12-22T15:36:01.158Z,77.60
2022-12-22T15:38:31.040Z,83.00
2022-12-22T15:41:01.862Z,79.67
2022-12-22T15:43:56.540Z,77.00
2022-12-22T15:46:22.114Z,75.63
2022-12-22T15:48:49.605Z,81.07
2022-12-22T15:51:25.876Z,75.73
2022-12-22T15:53:55.112Z,82.70
2022-12-22T15:56:24.947Z,77.00
2022-12-22T15:58:52.404Z,78.97
2022-12-22T16:01:19.246Z,71.90
2022-12-22T16:03:46.535Z,77.73
2022-12-22T16:06:16.598Z,74.43
2022-12-22T16:08:49.625Z,73.13
2022-12-22T16:11:17.422Z,73.10
2022-12-22T16:13:45.355Z,73.43
2022-12-22T16:16:12.310Z,77.83
2022-12-22T16:18:39.660Z,73.07
2022-12-22T16:21:15.555Z,71.40
2022-12-22T16:23:46.658Z,72.20
2022-12-22T16:26:20.421Z,73.43
2022-12-22T16:28:48.384Z,73.43
2022-12-22T16:31:21.506Z,73.30
2022-12-22T16:33:49.556Z,70.90
2022-12-22T16:36:16.442Z,75.03
2022-12-22T16:38:45.729Z,73.13
2022-12-22T16:41:24.005Z,73.80
2022-12-22T16:46:39.274Z,70.47
2022-12-22T16:49:09.179Z,75.83
2022-12-22T16:51:40.194Z,68.33
2022-12-22T16:54:12.725Z,72.30
2022-12-22T16:56:41.856Z,78.77
2022-12-22T16:59:09.564Z,74.40
2022-12-22T17:01:55.811Z,77.50
2022-12-22T17:04:28.339Z,71.80
2022-12-22T17:06:56.830Z,73.63
2022-12-22T17:09:39.912Z,70.47
2022-12-22T17:12:07.297Z,73.17
2022-12-22T17:14:37.708Z,72.17
2022-12-22T17:17:04.518Z,67.60
2022-12-22T17:19:31.547Z,69.30
2022-12-22T17:21:59.096Z,73.50
2022-12-22T17:24:28.847Z,72.10
2022-12-22T17:27:05.081Z,73.17
2022-12-22T17:29:32.200Z,77.37
2022-12-22T17:31:58.928Z,69.37
2022-12-22T17:34:26.356Z,75.83
2022-12-22T17:36:53.242Z,73.13
2022-12-22T17:39:21.753Z,75.13
2022-12-22T17:41:56.221Z,73.23
2022-12-22T17:44:26.333Z,76.80
2022-12-22T17:46:53.699Z,77.67
2022-12-22T17:49:22.481Z,72.33
2022-12-22T17:51:50.324Z,69.87
2022-12-22T17:54:25.975Z,72.43
2022-12-22T17:57:17.967Z,72.07
2022-12-22T17:59:45.100Z,67.67
2022-12-22T18:02:20.191Z,68.70
2022-12-22T18:04:48.874Z,66.07
2022-12-22T18:07:19.819Z,62.93
2022-12-22T18:09:48.435Z,65.90
2022-12-22T18:12:21.037Z,66.53
2022-12-22T18:14:49.303Z,65.60
2022-12-22T18:17:35.178Z,65.70
2022-12-22T18:20:03.168Z,61.63
2022-12-22T18:22:30.535Z,62.60
2022-12-22T18:24:57.954Z,62.63
2022-12-22T18:27:24.818Z,66.90
2022-12-22T18:29:52.034Z,65.43
2022-12-22T18:32:27.069Z,65.20
2022-12-22T18:34:55.105Z,64.40
2022-12-22T18:37:21.915Z,63.77
2022-12-22T18:39:48.957Z,62.10
2022-12-22T18:42:21.484Z,63.97
2022-12-22T18:44:49.465Z,65.17
2022-12-22T18:47:16.840Z,59.50
2022-12-22T18:49:44.697Z,64.20
2022-12-22T18:52:20.058Z,62.80
2022-12-22T18:54:47.819Z,61.90
2022-12-22T18:57:16.788Z,61.67
2022-12-22T18:59:45.392Z,59.93
2022-12-22T19:02:29.680Z,64.30
2022-12-22T19:04:57.187Z,62.60
2022-12-22T19:07:25.625Z,60.40
2022-12-22T19:09:52.978Z,63.00
2022-12-22T19:12:23.192Z,59.90
2022-12-22T19:14:54.090Z,58.70
2022-12-22T19:17:28.723Z,61.40
2022-12-22T19:19:56.801Z,54.47
2022-12-22T19:22:23.638Z,52.77
2022-12-22T19:24:51.582Z,54.80
2022-12-22T19:27:24.522Z,54.33
2022-12-22T19:30:02.730Z,56.63
2022-12-22T19:32:35.965Z,55.67
2022-12-22T19:35:03.346Z,51.27
2022-12-22T19:37:30.104Z,49.87
2022-12-22T19:39:57.173Z,54.77
2022-12-22T19:42:25.471Z,51.47
2022-12-22T19:44:52.556Z,49.87
2022-12-22T19:47:22.262Z,47.27
2022-12-22T19:49:49.394Z,50.90
2022-12-22T19:52:16.242Z,51.43
2022-12-22T19:54:43.291Z,47.60
2022-12-22T19:57:18.121Z,46.83
2022-12-22T19:59:48.580Z,50.23
2022-12-22T20:02:22.070Z,46.83
2022-12-22T20:04:50.357Z,45.63
2022-12-22T20:07:20.176Z,44.90
2022-12-22T20:09:47.489Z,45.27
2022-12-22T20:12:23.750Z,37.13
2022-12-22T20:14:51.289Z,41.33
2022-12-22T20:17:19.546Z,39.93
2022-12-22T20:19:46.364Z,36.67
2022-12-22T20:22:16.077Z,41.10
2022-12-22T20:24:44.451Z,36.40
2022-12-22T20:27:21.354Z,35.57
2022-12-22T20:29:48.222Z,35.43
2022-12-22T20:32:19.668Z,31.23
2022-12-22T20:34:49.423Z,35.20
2022-12-22T20:37:18.081Z,35.87
2022-12-22T20:39:45.330Z,33.23
2022-12-22T20:42:20.130Z,35.27
2022-12-22T20:45:02.669Z,35.63
2022-12-22T20:47:35.923Z,38.87
2022-12-22T20:50:03.006Z,39.20
2022-12-22T20:52:30.140Z,36.10
2022-12-22T20:54:56.961Z,35.00
2022-12-22T20:57:25.283Z,40.07
2022-12-22T20:59:56.001Z,46.63
2022-12-22T21:02:28.305Z,45.43
2022-12-22T21:04:56.239Z,43.43
2022-12-22T21:07:23.367Z,46.57
2022-12-22T21:09:50.186Z,46.17
2022-12-22T21:12:17.320Z,46.93
2022-12-22T21:14:44.818Z,40.97
2022-12-22T21:17:16.428Z,46.97
2022-12-22T21:19:43.431Z,49.33
2022-12-22T21:22:10.732Z,48.00
2022-12-22T21:24:37.579Z,45.33
2022-12-22T21:27:05.096Z,40.87
2022-12-22T21:29:31.866Z,42.53
2022-12-22T21:31:58.890Z,41.57
2022-12-22T21:34:25.665Z,41.03
2022-12-22T21:36:59.263Z,43.07
2022-12-22T21:39:52.268Z,40.67
2022-12-22T21:42:19.926Z,42.23
2022-12-22T21:44:47.136Z,46.03
2022-12-22T21:47:17.138Z,45.93
2022-12-22T21:49:44.000Z,44.80
2022-12-22T21:52:11.010Z,46.67
2022-12-22T21:54:37.902Z,46.33
2022-12-22T21:57:05.113Z,44.70
2022-12-22T21:59:31.894Z,45.53
2022-12-22T22:01:59.133Z,54.33
2022-12-22T22:04:26.107Z,59.50
2022-12-22T22:06:53.268Z,59.20
2022-12-22T22:09:20.021Z,64.90
2022-12-22T22:12:05.682Z,61.60
2022-12-22T22:14:32.442Z,56.50
2022-12-22T22:16:59.452Z,54.40
2022-12-22T22:19:26.281Z,53.00
2022-12-22T22:21:53.326Z,58.13
2022-12-22T22:24:20.420Z,47.73
2022-12-22T22:26:49.241Z,50.73
2022-12-22T22:29:16.069Z,51.73
2022-12-22T22:31:43.122Z,48.00
2022-12-22T22:34:09.869Z,44.77
2022-12-22T22:36:36.855Z,42.50
2022-12-22T22:39:03.841Z,41.17
2022-12-22T22:41:34.312Z,43.07
2022-12-22T22:44:04.669Z,46.70
2022-12-22T22:46:31.772Z,46.77
2022-12-22T22:48:58.769Z,44.37
2022-12-22T22:51:25.964Z,43.80
2022-12-22T22:53:52.724Z,41.43
2022-12-22T22:56:19.734Z,44.07
2022-12-22T22:58:46.520Z,36.73
2022-12-22T23:01:13.659Z,40.20
2022-12-22T23:03:40.715Z,40.63
2022-12-22T23:06:10.241Z,35.80
2022-12-22T23:08:37.334Z,35.70
2022-12-22T23:11:05.757Z,38.43
2022-12-22T23:13:32.666Z,36.90
2022-12-22T23:16:02.332Z,37.27
2022-12-22T23:18:30.774Z,33.30
2022-12-22T23:20:59.096Z,38.17
2022-12-22T23:23:25.885Z,37.83
2022-12-22T23:25:53.031Z,34.57
2022-12-22T23:28:20.581Z,34.43
2022-12-22T23:30:50.694Z,33.87
2022-12-22T23:33:18.297Z,34.67
2022-12-22T23:35:47.432Z,37.47
2022-12-22T23:38:15.058Z,42.17
2022-12-22T23:40:52.213Z,37.87
2022-12-22T23:43:19.478Z,39.07
2022-12-22T23:45:46.481Z,39.47
2022-12-22T23:48:13.207Z,43.40
2022-12-22T23:50:40.270Z,41.67
2022-12-22T23:53:07.162Z,41.87
2022-12-22T23:55:34.267Z,43.23
2022-12-22T23:58:01.023Z,43.90
